Time;durP1;ratioP1;P1;durP2;ratioP2;P2;SDS_P1;SDS_P2;PMS_P1;PMS_P2;Temp;Humidity;BMP_temperature;BMP_pressure;BME280_temperature;BME280_humidity;BME280_pressure;Samples;Min_cycle;Max_cycle;Signal;HPM_P1;HPM_P2
2022/01/25 00:24:32;;;;;;;;;;;1.90;99.90;;;;;;4988432;28;20073;-70
2022/01/25 00:30:10;;;;;;;;;;;1.90;99.90;;;;;;4986878;28;20285;-70
2022/01/25 00:32:37;;;;;;;;;;;1.90;99.90;;;;;;4989499;28;20394;-71
2022/01/25 00:35:05;;;;;;;;;;;1.90;99.90;;;;;;4989716;28;20178;-70
2022/01/25 00:37:33;;;;;;;;;;;1.90;99.90;;;;;;4989561;28;21020;-70
2022/01/25 00:40:00;;;;;;;;;;;1.90;99.90;;;;;;4988236;28;20158;-70
2022/01/25 00:42:27;;;;;;;;;;;2.00;99.90;;;;;;4989224;28;20068;-70
2022/01/25 00:44:55;;;;;;;;;;;2.00;99.90;;;;;;4988548;28;20091;-70
2022/01/25 00:47:25;;;;;;;;;;;2.00;99.90;;;;;;4989733;28;20160;-70
2022/01/25 00:49:53;;;;;;;;;;;2.00;99.90;;;;;;4988888;28;20059;-70
2022/01/25 00:53:52;;;;;;;;;;;2.00;99.90;;;;;;4989619;28;20141;-70
2022/01/25 00:55:12;;;;;;;;;;;2.00;99.90;;;;;;4987751;28;21275;-70
2022/01/25 00:57:39;;;;;;;;;;;2.10;99.90;;;;;;4989428;28;20075;-70
2022/01/25 01:00:07;;;;;;;;;;;2.10;99.90;;;;;;4988251;28;20067;-70
2022/01/25 01:02:34;;;;;;;;;;;2.10;99.90;;;;;;4989413;28;21124;-71
2022/01/25 01:05:01;;;;;;;;;;;2.10;99.90;;;;;;4988659;28;20068;-71
2022/01/25 01:07:28;;;;;;;;;;;2.10;99.90;;;;;;4988753;28;20356;-70
2022/01/25 01:09:58;;;;;;;;;;;2.10;99.90;;;;;;4987963;28;20095;-70
2022/01/25 01:12:51;;;;;;;;;;;2.10;99.90;;;;;;4989245;28;20077;-71
2022/01/25 01:15:24;;;;;;;;;;;2.10;99.90;;;;;;4987820;28;21247;-70
2022/01/25 01:29:19;;;;;;;;;;;2.20;99.90;;;;;;4987906;28;20056;-70
2022/01/25 01:31:58;;;;;;;;;;;2.20;99.90;;;;;;4988639;28;21042;-70
2022/01/25 01:34:48;;;;;;;;;;;2.20;99.90;;;;;;4988178;28;21176;-71
2022/01/25 01:40:25;;;;;;;;;;;2.20;99.90;;;;;;4987420;28;20056;-69
2022/01/25 01:43:03;;;;;;;;;;;2.30;99.90;;;;;;4988738;28;20067;-71
2022/01/25 01:45:44;;;;;;;;;;;2.30;99.90;;;;;;4988434;28;20064;-70
2022/01/25 01:48:24;;;;;;;;;;;2.30;99.90;;;;;;4988893;28;20068;-71
2022/01/25 01:50:51;;;;;;;;;;;2.30;99.90;;;;;;4987333;28;20248;-70
2022/01/25 01:53:18;;;;;;;;;;;2.40;99.90;;;;;;4988954;28;20069;-70
2022/01/25 01:55:46;;;;;;;;;;;2.40;99.90;;;;;;4988312;28;21133;-70
2022/01/25 01:58:14;;;;;;;;;;;2.40;99.90;;;;;;4988475;28;20074;-70
2022/01/25 02:00:44;;;;;;;;;;;2.40;99.90;;;;;;4986980;28;20069;-70
2022/01/25 02:03:11;;;;;;;;;;;2.30;99.90;;;;;;4988022;28;21304;-70
2022/01/25 02:05:38;;;;;;;;;;;2.30;99.90;;;;;;4988022;28;20068;-70
2022/01/25 02:08:06;;;;;;;;;;;2.30;99.90;;;;;;4987112;28;21060;-70
2022/01/25 02:10:33;;;;;;;;;;;2.30;99.90;;;;;;4987136;28;20080;-71
2022/01/25 02:13:01;;;;;;;;;;;2.30;99.90;;;;;;4988274;28;20086;-70
2022/01/25 02:15:28;;;;;;;;;;;2.30;99.90;;;;;;4987721;28;20060;-70
2022/01/25 02:23:30;;;;;;;;;;;2.30;99.90;;;;;;4947300;28;20075;-70
2022/01/25 02:25:58;;;;;;;;;;;2.30;99.90;;;;;;4987345;28;20075;-69
2022/01/25 02:28:26;;;;;;;;;;;2.30;99.90;;;;;;4987850;28;20076;-70
2022/01/25 02:30:54;;;;;;;;;;;2.30;99.90;;;;;;4986658;28;20077;-71
2022/01/25 02:33:21;;;;;;;;;;;2.40;99.90;;;;;;4987515;28;20076;-70
2022/01/25 02:35:50;;;;;;;;;;;2.40;99.90;;;;;;4987410;28;21152;-71
2022/01/25 02:38:21;;;;;;;;;;;2.40;99.90;;;;;;4987743;28;20170;-71
2022/01/25 02:40:49;;;;;;;;;;;2.40;99.90;;;;;;4986738;28;20067;-71
2022/01/25 02:43:18;;;;;;;;;;;2.40;99.90;;;;;;4987289;28;20077;-70
2022/01/25 02:45:51;;;;;;;;;;;2.30;99.90;;;;;;4987038;28;20170;-70
2022/01/25 02:48:30;;;;;;;;;;;2.30;99.90;;;;;;4986425;28;20066;-70
2022/01/25 02:51:00;;;;;;;;;;;2.30;99.90;;;;;;4986049;28;20071;-70
2022/01/25 02:53:28;;;;;;;;;;;2.30;99.90;;;;;;4986414;28;20068;-70
2022/01/25 02:55:56;;;;;;;;;;;2.30;99.90;;;;;;4987552;28;20161;-70
2022/01/25 02:58:23;;;;;;;;;;;2.30;99.90;;;;;;4986943;28;21051;-70
2022/01/25 03:00:50;;;;;;;;;;;2.30;99.90;;;;;;4986002;28;20170;-70
2022/01/25 03:03:17;;;;;;;;;;;2.30;99.90;;;;;;4987070;28;20170;-70
2022/01/25 03:05:45;;;;;;;;;;;2.30;99.90;;;;;;4987095;28;20150;-70
2022/01/25 03:08:15;;;;;;;;;;;2.30;99.90;;;;;;4987020;28;20207;-71
2022/01/25 03:10:44;;;;;;;;;;;2.30;99.90;;;;;;4985800;28;20071;-71
2022/01/25 03:13:16;;;;;;;;;;;2.30;99.90;;;;;;4982837;28;21161;-70
2022/01/25 03:15:56;;;;;;;;;;;2.30;99.90;;;;;;4984765;28;20090;-70
2022/01/25 03:21:17;;;;;;;;;;;2.30;99.90;;;;;;4979760;28;21267;-71
2022/01/25 03:23:46;;;;;;;;;;;2.30;99.90;;;;;;4986539;28;21170;-70
2022/01/25 03:26:13;;;;;;;;;;;2.20;99.90;;;;;;4987177;28;20065;-71
2022/01/25 03:28:40;;;;;;;;;;;2.20;99.90;;;;;;4986943;28;20077;-69
2022/01/25 03:31:07;;;;;;;;;;;2.20;99.90;;;;;;4986830;28;20068;-70
2022/01/25 03:33:34;;;;;;;;;;;2.20;99.90;;;;;;4986578;28;20084;-70
2022/01/25 03:36:02;;;;;;;;;;;2.10;99.90;;;;;;4986426;28;20127;-69
2022/01/25 03:38:29;;;;;;;;;;;2.00;99.90;;;;;;4986855;28;20069;-70
2022/01/25 03:40:58;;;;;;;;;;;1.90;99.90;;;;;;4985753;28;20069;-70
2022/01/25 03:43:25;;;;;;;;;;;1.90;99.90;;;;;;4986915;28;20091;-69
2022/01/25 03:46:02;;;;;;;;;;;1.80;99.90;;;;;;4986676;28;21209;-70
2022/01/25 03:51:14;;;;;;;;;;;1.70;99.90;;;;;;4986748;28;20068;-71
2022/01/25 03:53:41;;;;;;;;;;;1.70;99.90;;;;;;4986936;28;21126;-71
2022/01/25 03:56:10;;;;;;;;;;;1.60;99.90;;;;;;4986507;28;21165;-70
2022/01/25 03:58:37;;;;;;;;;;;1.60;99.90;;;;;;4987815;28;20092;-70
2022/01/25 04:01:04;;;;;;;;;;;1.60;99.90;;;;;;4987459;28;20068;-69
2022/01/25 04:03:36;;;;;;;;;;;1.50;99.90;;;;;;5005047;28;20076;-69
2022/01/25 04:06:04;;;;;;;;;;;1.50;99.90;;;;;;4985334;28;21052;-71
2022/01/25 04:08:33;;;;;;;;;;;1.50;99.90;;;;;;4990701;28;20062;-70
2022/01/25 04:11:00;;;;;;;;;;;1.40;99.90;;;;;;4989396;28;20066;-70
2022/01/25 04:13:29;;;;;;;;;;;1.40;99.90;;;;;;4990105;28;20068;-70
2022/01/25 04:15:59;;;;;;;;;;;1.30;99.90;;;;;;4990788;28;21071;-70
2022/01/25 04:18:34;;;;;;;;;;;1.30;99.90;;;;;;4990577;28;21011;-70
2022/01/25 04:21:13;;;;;;;;;;;1.30;99.90;;;;;;4989164;28;20060;-70
2022/01/25 04:26:25;;;;;;;;;;;1.20;99.90;;;;;;4991237;28;20056;-70
2022/01/25 04:28:53;;;;;;;;;;;1.20;99.90;;;;;;4989398;28;20149;-69
2022/01/25 04:31:21;;;;;;;;;;;1.20;99.90;;;;;;4990108;28;20069;-70
2022/01/25 04:34:08;;;;;;;;;;;1.20;99.90;;;;;;4989492;28;20083;-70
2022/01/25 04:48:48;;;;;;;;;;;1.20;99.90;;;;;;4989421;28;20069;-70
2022/01/25 04:50:58;;;;;;;;;;;1.20;99.90;;;;;;4988746;28;20062;-70
2022/01/25 04:53:36;;;;;;;;;;;1.20;99.90;;;;;;4989369;28;21151;-70
2022/01/25 04:56:10;;;;;;;;;;;1.20;99.90;;;;;;4990114;28;20078;-71
2022/01/25 04:58:43;;;;;;;;;;;1.20;99.90;;;;;;4989745;28;20275;-70
2022/01/25 05:01:12;;;;;;;;;;;1.20;99.90;;;;;;4989648;28;20200;-71
2022/01/25 05:03:53;;;;;;;;;;;1.20;99.90;;;;;;4988687;28;20339;-71
2022/01/25 05:06:21;;;;;;;;;;;1.20;99.90;;;;;;4989930;28;20067;-71
2022/01/25 05:08:52;;;;;;;;;;;1.20;99.90;;;;;;4988193;28;20076;-70
2022/01/25 05:11:26;;;;;;;;;;;1.20;99.90;;;;;;4988568;28;20141;-71
2022/01/25 05:14:09;;;;;;;;;;;1.20;99.90;;;;;;4988760;28;20150;-72
2022/01/25 05:16:47;;;;;;;;;;;1.20;99.90;;;;;;4989727;28;20083;-71
2022/01/25 05:19:24;;;;;;;;;;;1.20;99.90;;;;;;4988286;28;20067;-72
2022/01/25 05:22:19;;;;;;;;;;;1.20;99.90;;;;;;4990081;28;20069;-71
2022/01/25 05:24:47;;;;;;;;;;;1.20;99.90;;;;;;4988830;28;20048;-71
2022/01/25 05:27:16;;;;;;;;;;;1.20;99.90;;;;;;4989628;28;20066;-71
2022/01/25 05:29:43;;;;;;;;;;;1.20;99.90;;;;;;4987752;28;21060;-71
2022/01/25 05:32:12;;;;;;;;;;;1.20;99.90;;;;;;4988643;28;20162;-68
2022/01/25 05:34:39;;;;;;;;;;;1.20;99.90;;;;;;4988198;28;21145;-68
2022/01/25 05:37:07;;;;;;;;;;;1.20;99.90;;;;;;4988074;28;20203;-68
2022/01/25 05:39:36;;;;;;;;;;;1.20;99.90;;;;;;4985259;28;20077;-69
2022/01/25 05:42:19;;;;;;;;;;;1.20;99.90;;;;;;4987191;28;20067;-70
2022/01/25 05:44:56;;;;;;;;;;;1.10;99.90;;;;;;4997413;28;20105;-70
2022/01/25 05:47:28;;;;;;;;;;;1.10;99.90;;;;;;4986870;28;20197;-69
2022/01/25 05:49:56;;;;;;;;;;;1.20;99.90;;;;;;4987288;28;20084;-69
2022/01/25 05:52:23;;;;;;;;;;;1.20;99.90;;;;;;4988536;28;20068;-69
2022/01/25 05:54:50;;;;;;;;;;;1.20;99.90;;;;;;4988134;28;20077;-70
2022/01/25 05:57:17;;;;;;;;;;;1.20;99.90;;;;;;4988195;28;20103;-69
2022/01/25 05:59:45;;;;;;;;;;;1.30;99.90;;;;;;5003533;28;20069;-69
2022/01/25 06:02:17;;;;;;;;;;;1.20;99.90;;;;;;4992168;28;20154;-69
2022/01/25 06:04:45;;;;;;;;;;;1.30;99.90;;;;;;5005984;28;20172;-69
2022/01/25 06:07:13;;;;;;;;;;;1.20;99.90;;;;;;4986076;28;20068;-69
2022/01/25 06:09:41;;;;;;;;;;;1.20;99.90;;;;;;4985032;28;21045;-69
2022/01/25 06:12:08;;;;;;;;;;;1.20;99.90;;;;;;4986660;28;20072;-70
2022/01/25 06:14:35;;;;;;;;;;;1.20;99.90;;;;;;4982690;28;20102;-70
2022/01/25 06:17:02;;;;;;;;;;;1.30;99.90;;;;;;4983910;28;20077;-69
2022/01/25 06:19:30;;;;;;;;;;;1.30;99.90;;;;;;4987708;28;20060;-70
2022/01/25 06:21:58;;;;;;;;;;;1.30;99.90;;;;;;4987994;28;21063;-70
2022/01/25 06:24:26;;;;;;;;;;;1.30;99.90;;;;;;4985261;28;20084;-68
2022/01/25 06:26:53;;;;;;;;;;;1.30;99.90;;;;;;4981778;28;21109;-68
2022/01/25 06:29:20;;;;;;;;;;;1.30;99.90;;;;;;4992668;28;20084;-68
2022/01/25 06:31:48;;;;;;;;;;;1.30;99.90;;;;;;4998646;28;20076;-68
2022/01/25 06:34:15;;;;;;;;;;;1.40;99.90;;;;;;4980980;28;20074;-68
2022/01/25 06:36:42;;;;;;;;;;;1.30;99.90;;;;;;4988358;28;21020;-69
2022/01/25 06:39:11;;;;;;;;;;;1.30;99.90;;;;;;4986967;28;20093;-69
2022/01/25 06:41:38;;;;;;;;;;;1.30;99.90;;;;;;4987846;28;20085;-68
2022/01/25 06:44:06;;;;;;;;;;;1.30;99.90;;;;;;4986397;28;20061;-68
2022/01/25 06:46:33;;;;;;;;;;;1.30;99.90;;;;;;4985555;28;20082;-70
2022/01/25 06:49:00;;;;;;;;;;;1.30;99.90;;;;;;4985062;28;21068;-68
2022/01/25 06:51:29;;;;;;;;;;;1.30;99.90;;;;;;4986375;28;20084;-68
2022/01/25 06:53:56;;;;;;;;;;;1.30;99.90;;;;;;5001981;28;20077;-68
2022/01/25 06:56:25;;;;;;;;;;;1.30;99.90;;;;;;4984960;28;20158;-68
2022/01/25 06:58:52;;;;;;;;;;;1.30;99.90;;;;;;4999209;28;21393;-68
2022/01/25 07:01:19;;;;;;;;;;;1.30;99.90;;;;;;4985231;28;21143;-69
2022/01/25 07:03:46;;;;;;;;;;;1.30;99.90;;;;;;4985613;28;20077;-73
2022/01/25 07:06:13;;;;;;;;;;;1.30;99.90;;;;;;4987403;28;20176;-70
2022/01/25 07:08:43;;;;;;;;;;;1.30;99.90;;;;;;4994388;28;20060;-72
2022/01/25 07:11:10;;;;;;;;;;;1.30;99.90;;;;;;4986775;28;21129;-70
2022/01/25 07:13:39;;;;;;;;;;;1.30;99.90;;;;;;4987290;28;20324;-68
2022/01/25 07:16:07;;;;;;;;;;;1.30;99.90;;;;;;4986471;28;21140;-72
2022/01/25 07:18:34;;;;;;;;;;;1.30;99.90;;;;;;4988745;28;21090;-75
2022/01/25 07:21:01;;;;;;;;;;;1.30;99.90;;;;;;4987577;28;20063;-71
2022/01/25 07:23:28;;;;;;;;;;;1.30;99.90;;;;;;5003859;28;20085;-70
2022/01/25 07:25:56;;;;;;;;;;;1.30;99.90;;;;;;4980805;28;20296;-69
2022/01/25 07:28:23;;;;;;;;;;;1.20;99.90;;;;;;4982712;28;20067;-69
2022/01/25 07:30:52;;;;;;;;;;;1.20;99.90;;;;;;4985744;28;20068;-69
2022/01/25 07:33:19;;;;;;;;;;;1.20;99.90;;;;;;4986909;28;20182;-69
2022/01/25 07:35:46;;;;;;;;;;;1.20;99.90;;;;;;4990537;28;20174;-69
2022/01/25 07:38:15;;;;;;;;;;;1.30;99.90;;;;;;4990771;28;20086;-69
2022/01/25 07:40:44;;;;;;;;;;;1.30;99.90;;;;;;4994124;28;21144;-69
2022/01/25 07:43:11;;;;;;;;;;;1.30;99.90;;;;;;5011085;28;20050;-69
2022/01/25 07:45:42;;;;;;;;;;;1.30;99.90;;;;;;5034124;28;20294;-69
2022/01/25 07:48:13;;;;;;;;;;;1.40;99.90;;;;;;5013717;28;20068;-69
2022/01/25 07:50:42;;;;;;;;;;;1.30;99.90;;;;;;5017825;28;20058;-69
2022/01/25 07:53:09;;;;;;;;;;;1.30;99.90;;;;;;5017265;28;20110;-69
2022/01/25 07:55:36;;;;;;;;;;;1.30;99.90;;;;;;5030903;28;20058;-69
2022/01/25 07:58:04;;;;;;;;;;;1.30;99.90;;;;;;5030691;28;20060;-69
2022/01/25 08:00:32;;;;;;;;;;;1.30;99.90;;;;;;5029047;28;20068;-69
2022/01/25 08:03:00;;;;;;;;;;;1.20;99.90;;;;;;5032739;28;20090;-69
2022/01/25 08:05:29;;;;;;;;;;;1.20;99.90;;;;;;5031308;28;20071;-69
2022/01/25 08:07:58;;;;;;;;;;;1.20;99.90;;;;;;5029118;28;20261;-69
2022/01/25 08:10:25;;;;;;;;;;;1.10;99.90;;;;;;5010518;28;20088;-69
2022/01/25 08:12:52;;;;;;;;;;;1.10;99.90;;;;;;5012152;28;20271;-69
2022/01/25 08:15:20;;;;;;;;;;;1.10;99.90;;;;;;5025746;28;21138;-69
2022/01/25 08:17:47;;;;;;;;;;;1.10;99.90;;;;;;5027597;28;20058;-69
2022/01/25 08:20:14;;;;;;;;;;;1.10;99.90;;;;;;5010334;28;20051;-69
2022/01/25 08:22:44;;;;;;;;;;;1.10;99.90;;;;;;5027297;28;20060;-68
2022/01/25 08:25:12;;;;;;;;;;;1.20;99.90;;;;;;5010130;28;20059;-69
2022/01/25 08:27:39;;;;;;;;;;;1.20;99.90;;;;;;5027490;28;20097;-69
2022/01/25 08:30:07;;;;;;;;;;;1.20;99.90;;;;;;5010055;28;20059;-69
2022/01/25 08:32:35;;;;;;;;;;;1.20;99.90;;;;;;4989247;28;20082;-69
2022/01/25 08:35:03;;;;;;;;;;;1.30;99.90;;;;;;4990327;28;20582;-68
2022/01/25 08:37:30;;;;;;;;;;;1.30;99.90;;;;;;4989906;28;21049;-69
2022/01/25 08:39:59;;;;;;;;;;;1.30;99.90;;;;;;4989441;28;20088;-68
2022/01/25 08:42:27;;;;;;;;;;;1.20;99.90;;;;;;4990371;28;20076;-69
2022/01/25 08:44:54;;;;;;;;;;;1.30;99.90;;;;;;4989471;28;20230;-69
2022/01/25 08:47:21;;;;;;;;;;;1.30;99.90;;;;;;4990062;28;20052;-69
2022/01/25 08:49:49;;;;;;;;;;;1.30;99.90;;;;;;4984176;28;20101;-68
2022/01/25 08:52:16;;;;;;;;;;;1.30;99.90;;;;;;4988558;28;21160;-69
2022/01/25 08:54:43;;;;;;;;;;;1.30;99.90;;;;;;4989008;28;20069;-69
2022/01/25 08:57:12;;;;;;;;;;;1.30;99.90;;;;;;4988985;28;21163;-73
2022/01/25 08:59:39;;;;;;;;;;;1.30;99.90;;;;;;4987882;28;21041;-69
2022/01/25 09:02:06;;;;;;;;;;;1.30;99.90;;;;;;4988647;28;20084;-69
2022/01/25 09:04:33;;;;;;;;;;;1.40;99.90;;;;;;4987808;28;21187;-69
2022/01/25 09:07:00;;;;;;;;;;;1.40;99.90;;;;;;4988824;28;20173;-69
2022/01/25 09:09:28;;;;;;;;;;;1.40;99.90;;;;;;4985259;28;20069;-69
2022/01/25 09:11:56;;;;;;;;;;;1.40;99.90;;;;;;4988767;28;20108;-68
2022/01/25 09:14:25;;;;;;;;;;;1.40;99.90;;;;;;4988294;28;20148;-69
2022/01/25 09:16:52;;;;;;;;;;;1.40;99.90;;;;;;4988501;28;20059;-69
2022/01/25 09:19:19;;;;;;;;;;;1.40;99.90;;;;;;4987294;28;20186;-69
2022/01/25 09:21:46;;;;;;;;;;;1.40;99.90;;;;;;4982175;28;21085;-69
2022/01/25 09:24:13;;;;;;;;;;;1.40;99.90;;;;;;4992869;28;20127;-69
2022/01/25 09:26:40;;;;;;;;;;;1.40;99.90;;;;;;4988496;28;20068;-70
2022/01/25 09:29:08;;;;;;;;;;;1.40;99.90;;;;;;4987997;28;21167;-68
2022/01/25 09:31:36;;;;;;;;;;;1.50;99.90;;;;;;4988594;28;20067;-69
2022/01/25 09:34:04;;;;;;;;;;;1.60;99.90;;;;;;4988323;28;20060;-70
2022/01/25 09:36:31;;;;;;;;;;;1.60;99.90;;;;;;4988398;28;20060;-70
2022/01/25 09:38:58;;;;;;;;;;;1.60;99.90;;;;;;4988088;28;20295;-69
2022/01/25 09:41:25;;;;;;;;;;;1.60;99.90;;;;;;4998518;28;20060;-69
2022/01/25 09:43:52;;;;;;;;;;;1.60;99.90;;;;;;5008139;28;20193;-68
2022/01/25 09:46:19;;;;;;;;;;;1.50;99.90;;;;;;5025475;28;20076;-69
2022/01/25 09:48:48;;;;;;;;;;;1.60;99.90;;;;;;5024926;28;20051;-68
2022/01/25 09:51:18;;;;;;;;;;;1.60;99.90;;;;;;5025019;28;20059;-68
2022/01/25 09:53:45;;;;;;;;;;;1.60;99.90;;;;;;4990971;28;20105;-69
2022/01/25 09:56:12;;;;;;;;;;;1.70;99.90;;;;;;4987628;28;20069;-70
2022/01/25 09:58:39;;;;;;;;;;;1.80;99.90;;;;;;4986954;28;20068;-69
2022/01/25 10:01:07;;;;;;;;;;;1.70;99.90;;;;;;4988273;28;20060;-69
2022/01/25 10:03:37;;;;;;;;;;;1.70;99.90;;;;;;4983580;28;20060;-69
2022/01/25 10:06:11;;;;;;;;;;;1.80;99.90;;;;;;4992975;28;20066;-69
2022/01/25 10:08:39;;;;;;;;;;;1.90;99.90;;;;;;4993220;28;20059;-69
2022/01/25 10:11:07;;;;;;;;;;;1.90;99.90;;;;;;4989117;28;21099;-69
2022/01/25 10:13:35;;;;;;;;;;;2.00;99.90;;;;;;4986199;28;20226;-69
2022/01/25 10:16:04;;;;;;;;;;;2.00;99.90;;;;;;4987417;28;20051;-69
2022/01/25 10:18:38;;;;;;;;;;;2.00;99.90;;;;;;4986736;28;20073;-69
2022/01/25 10:21:10;;;;;;;;;;;2.00;99.90;;;;;;4987008;28;20152;-69
2022/01/25 10:23:37;;;;;;;;;;;2.00;99.90;;;;;;4995512;28;20131;-69
2022/01/25 10:26:04;;;;;;;;;;;2.10;99.90;;;;;;5003797;28;20338;-69
2022/01/25 10:28:32;;;;;;;;;;;2.10;99.90;;;;;;5003390;28;20068;-69
2022/01/25 10:31:00;;;;;;;;;;;2.10;99.90;;;;;;5001710;28;20141;-68
2022/01/25 10:33:32;;;;;;;;;;;2.10;99.90;;;;;;5001855;28;20211;-69
2022/01/25 10:36:00;;;;;;;;;;;2.20;99.90;;;;;;5003341;28;20051;-68
2022/01/25 10:38:30;;;;;;;;;;;2.20;99.90;;;;;;5019838;28;20060;-69
2022/01/25 10:40:59;;;;;;;;;;;2.30;99.90;;;;;;5006263;28;20221;-68
2022/01/25 10:43:26;;;;;;;;;;;2.30;99.90;;;;;;5022916;28;20124;-69
2022/01/25 10:46:15;;;;;;;;;;;2.30;99.90;;;;;;5022787;28;20140;-70
2022/01/25 10:48:44;;;;;;;;;;;2.20;99.90;;;;;;5006746;28;20159;-69
2022/01/25 10:51:12;;;;;;;;;;;2.20;99.90;;;;;;5007133;28;21143;-69
2022/01/25 10:53:41;;;;;;;;;;;2.20;99.90;;;;;;5018558;28;20084;-69
2022/01/25 10:56:09;;;;;;;;;;;2.30;99.90;;;;;;4985797;28;20217;-69
2022/01/25 10:58:40;;;;;;;;;;;2.40;99.90;;;;;;4986335;28;20170;-69
2022/01/25 11:01:09;;;;;;;;;;;2.40;99.90;;;;;;5002805;28;20161;-69
2022/01/25 11:03:37;;;;;;;;;;;2.50;99.90;;;;;;5002425;28;20051;-70
2022/01/25 11:06:11;;;;;;;;;;;2.50;99.90;;;;;;5002979;28;20059;-68
2022/01/25 11:08:40;;;;;;;;;;;2.60;99.90;;;;;;5002130;28;21044;-69
2022/01/25 11:11:12;;;;;;;;;;;2.60;99.90;;;;;;5002004;28;20060;-69
2022/01/25 11:13:43;;;;;;;;;;;2.60;99.90;;;;;;4990120;28;20068;-69
2022/01/25 11:16:11;;;;;;;;;;;2.70;99.90;;;;;;4990874;28;20059;-68
2022/01/25 11:18:40;;;;;;;;;;;2.70;99.90;;;;;;4991746;28;20066;-69
2022/01/25 11:21:08;;;;;;;;;;;2.80;99.90;;;;;;4991541;28;20067;-68
2022/01/25 11:23:36;;;;;;;;;;;2.80;99.90;;;;;;4977844;28;20162;-69
2022/01/25 11:26:05;;;;;;;;;;;2.80;99.90;;;;;;4991599;28;21158;-69
2022/01/25 11:28:33;;;;;;;;;;;2.80;99.90;;;;;;4990991;28;21076;-69
2022/01/25 11:31:02;;;;;;;;;;;2.80;99.90;;;;;;4990275;28;20052;-69
2022/01/25 11:33:30;;;;;;;;;;;2.80;99.90;;;;;;4989934;28;21122;-68
2022/01/25 11:35:57;;;;;;;;;;;2.80;99.90;;;;;;4990727;28;20224;-68
2022/01/25 11:38:32;;;;;;;;;;;2.70;99.90;;;;;;4991289;28;20132;-69
2022/01/25 11:40:59;;;;;;;;;;;2.80;99.90;;;;;;4996275;28;20068;-69
2022/01/25 11:43:28;;;;;;;;;;;2.80;99.90;;;;;;5027103;28;20050;-68
2022/01/25 11:46:02;;;;;;;;;;;2.80;99.90;;;;;;5027113;28;20059;-69
2022/01/25 11:48:35;;;;;;;;;;;2.90;99.90;;;;;;5027686;28;20174;-69
2022/01/25 11:51:03;;;;;;;;;;;2.80;99.90;;;;;;5026454;28;21139;-69
2022/01/25 11:53:30;;;;;;;;;;;2.90;99.90;;;;;;5026414;28;21183;-68
2022/01/25 11:55:57;;;;;;;;;;;2.90;99.90;;;;;;5010494;28;20058;-69
2022/01/25 11:58:29;;;;;;;;;;;2.90;99.90;;;;;;5003113;28;20068;-68
2022/01/25 12:00:57;;;;;;;;;;;3.00;99.90;;;;;;5005293;28;20067;-69
2022/01/25 12:03:26;;;;;;;;;;;3.00;99.90;;;;;;4989447;28;20068;-68
2022/01/25 12:05:54;;;;;;;;;;;3.00;99.90;;;;;;4989775;28;20084;-68
2022/01/25 12:08:27;;;;;;;;;;;2.90;99.90;;;;;;4994264;28;20059;-68
2022/01/25 12:11:05;;;;;;;;;;;2.90;99.90;;;;;;4983531;28;20247;-68
2022/01/25 12:13:34;;;;;;;;;;;3.00;99.90;;;;;;5003752;28;20076;-69
2022/01/25 12:16:16;;;;;;;;;;;3.10;99.90;;;;;;4989462;28;20068;-69
2022/01/25 12:18:57;;;;;;;;;;;3.10;99.90;;;;;;5002369;28;21181;-67
2022/01/25 12:21:43;;;;;;;;;;;3.10;99.90;;;;;;4970120;28;20061;-68
2022/01/25 12:24:17;;;;;;;;;;;3.10;99.90;;;;;;4969278;28;20060;-68
2022/01/25 12:26:56;;;;;;;;;;;3.00;99.90;;;;;;4969871;28;20052;-69
2022/01/25 12:29:33;;;;;;;;;;;3.00;99.90;;;;;;4968846;28;20091;-68
2022/01/25 12:32:19;;;;;;;;;;;3.00;99.90;;;;;;4980042;28;20084;-67
2022/01/25 12:35:05;;;;;;;;;;;3.10;99.90;;;;;;5001068;28;20060;-68
2022/01/25 12:37:54;;;;;;;;;;;3.10;99.90;;;;;;4990270;28;20060;-68
2022/01/25 12:40:29;;;;;;;;;;;3.10;99.90;;;;;;4990391;28;20158;-69
2022/01/25 12:42:58;;;;;;;;;;;3.10;99.90;;;;;;4991469;28;20060;-68
2022/01/25 12:45:29;;;;;;;;;;;3.10;99.90;;;;;;4990232;28;21171;-69
2022/01/25 12:47:57;;;;;;;;;;;3.10;99.90;;;;;;4990323;28;20154;-69
2022/01/25 12:50:25;;;;;;;;;;;3.10;99.90;;;;;;4983247;28;21189;-68
2022/01/25 12:52:52;;;;;;;;;;;3.10;99.90;;;;;;4983321;28;20165;-68
2022/01/25 12:55:24;;;;;;;;;;;3.10;99.90;;;;;;4982419;28;20228;-68
2022/01/25 12:57:52;;;;;;;;;;;3.10;99.90;;;;;;4981831;28;20068;-68
2022/01/25 13:00:19;;;;;;;;;;;3.10;99.90;;;;;;4988871;28;20184;-68
2022/01/25 13:02:48;;;;;;;;;;;3.10;99.90;;;;;;4988608;28;20054;-68
2022/01/25 13:05:16;;;;;;;;;;;3.10;99.90;;;;;;4977072;28;20265;-68
2022/01/25 13:07:43;;;;;;;;;;;3.10;99.90;;;;;;4988574;28;20091;-68
2022/01/25 13:10:12;;;;;;;;;;;3.00;99.90;;;;;;5001558;28;20077;-69
2022/01/25 13:12:55;;;;;;;;;;;3.00;99.90;;;;;;4989352;28;20075;-68
2022/01/25 13:15:50;;;;;;;;;;;3.00;99.90;;;;;;4987277;28;20170;-68
2022/01/25 13:18:19;;;;;;;;;;;3.00;99.90;;;;;;4987912;28;20066;-68
2022/01/25 13:20:58;;;;;;;;;;;3.00;99.90;;;;;;4989411;28;21222;-68
2022/01/25 13:23:26;;;;;;;;;;;3.00;99.90;;;;;;4989496;28;20175;-68
2022/01/25 13:25:56;;;;;;;;;;;3.00;99.90;;;;;;4983871;28;21139;-65
2022/01/25 13:28:36;;;;;;;;;;;3.00;99.90;;;;;;4988420;28;20218;-67
2022/01/25 13:31:06;;;;;;;;;;;3.00;99.90;;;;;;4988826;28;20262;-66
2022/01/25 13:33:36;;;;;;;;;;;3.10;99.90;;;;;;4989112;28;20055;-66
2022/01/25 13:36:04;;;;;;;;;;;3.10;99.90;;;;;;4989243;28;20069;-68
2022/01/25 13:38:32;;;;;;;;;;;3.10;99.90;;;;;;4989129;28;21286;-68
2022/01/25 13:41:09;;;;;;;;;;;3.10;99.90;;;;;;4979615;28;20083;-67
2022/01/25 13:46:23;;;;;;;;;;;3.10;99.90;;;;;;4969819;28;20330;-70
2022/01/25 13:48:54;;;;;;;;;;;3.10;99.90;;;;;;4977823;28;20067;-68
2022/01/25 13:51:22;;;;;;;;;;;3.10;99.90;;;;;;4988875;28;21137;-68
2022/01/25 13:53:53;;;;;;;;;;;3.10;99.90;;;;;;4975140;28;20069;-68
2022/01/25 13:56:21;;;;;;;;;;;3.10;99.90;;;;;;4968183;28;20076;-69
2022/01/25 13:58:49;;;;;;;;;;;3.20;99.90;;;;;;4967217;28;20069;-69
2022/01/25 14:01:18;;;;;;;;;;;3.10;99.90;;;;;;4980305;28;20084;-70
2022/01/25 14:03:46;;;;;;;;;;;3.10;99.90;;;;;;4986626;28;20065;-70
2022/01/25 14:06:22;;;;;;;;;;;3.10;99.90;;;;;;4985563;28;20162;-70
2022/01/25 14:08:49;;;;;;;;;;;3.10;99.90;;;;;;4986027;28;21140;-69
2022/01/25 14:11:20;;;;;;;;;;;3.10;99.90;;;;;;4987497;28;20068;-69
2022/01/25 14:22:27;;;;;;;;;;;3.10;99.90;;;;;;4986806;28;20108;-69
2022/01/25 14:24:54;;;;;;;;;;;3.10;99.90;;;;;;4986981;28;20060;-70
2022/01/25 14:27:23;;;;;;;;;;;3.10;99.90;;;;;;4986782;28;20163;-78
2022/01/25 14:29:51;;;;;;;;;;;3.10;99.90;;;;;;4986625;28;20065;-70
2022/01/25 14:32:27;;;;;;;;;;;3.20;99.90;;;;;;4987302;28;20075;-70
2022/01/25 14:35:01;;;;;;;;;;;3.20;99.90;;;;;;4984287;28;21122;-69
2022/01/25 14:37:30;;;;;;;;;;;3.20;99.90;;;;;;4985933;28;20084;-68
2022/01/25 14:40:08;;;;;;;;;;;3.20;99.90;;;;;;4982941;28;21136;-69
2022/01/25 14:42:37;;;;;;;;;;;3.10;99.90;;;;;;4985700;28;20215;-69
2022/01/25 14:45:05;;;;;;;;;;;3.10;99.90;;;;;;4985933;28;20099;-69
2022/01/25 14:47:37;;;;;;;;;;;3.10;99.90;;;;;;4986464;28;20162;-69
2022/01/25 14:50:07;;;;;;;;;;;3.20;99.90;;;;;;4987129;28;20082;-70
2022/01/25 14:52:35;;;;;;;;;;;3.30;99.90;;;;;;4988434;28;20059;-69
2022/01/25 14:55:03;;;;;;;;;;;3.30;99.90;;;;;;4980867;28;20161;-69
2022/01/25 14:57:39;;;;;;;;;;;3.40;99.90;;;;;;4988661;28;20077;-69
2022/01/25 15:00:08;;;;;;;;;;;3.40;99.90;;;;;;4987292;28;21245;-69
2022/01/25 15:02:35;;;;;;;;;;;3.40;99.90;;;;;;4987542;28;20060;-70
2022/01/25 15:05:03;;;;;;;;;;;3.40;99.90;;;;;;4986691;28;20099;-70
2022/01/25 15:07:33;;;;;;;;;;;3.30;99.90;;;;;;4987485;28;20051;-70
2022/01/25 15:10:04;;;;;;;;;;;3.30;99.90;;;;;;4985602;28;20226;-69
2022/01/25 15:12:37;;;;;;;;;;;3.30;99.90;;;;;;4986467;28;20052;-69
2022/01/25 15:15:09;;;;;;;;;;;3.40;99.90;;;;;;4986966;28;20057;-69
2022/01/25 15:17:36;;;;;;;;;;;3.40;99.90;;;;;;4986861;28;20065;-69
2022/01/25 15:20:04;;;;;;;;;;;3.40;99.90;;;;;;4985451;28;20060;-68
2022/01/25 15:22:32;;;;;;;;;;;3.40;99.90;;;;;;4986647;28;20052;-69
2022/01/25 15:25:00;;;;;;;;;;;3.40;99.90;;;;;;4986117;28;20051;-68
2022/01/25 15:27:29;;;;;;;;;;;3.30;99.90;;;;;;4987257;28;20080;-69
2022/01/25 15:29:56;;;;;;;;;;;3.20;99.90;;;;;;4984766;28;21121;-69
2022/01/25 15:32:24;;;;;;;;;;;3.20;99.90;;;;;;4987055;28;20051;-70
2022/01/25 15:34:51;;;;;;;;;;;3.20;99.90;;;;;;4985821;28;20091;-70
2022/01/25 15:37:18;;;;;;;;;;;3.20;99.90;;;;;;4986480;28;21042;-70
2022/01/25 15:39:45;;;;;;;;;;;3.30;99.90;;;;;;4985877;28;20091;-70
2022/01/25 15:42:14;;;;;;;;;;;3.20;99.90;;;;;;5002807;28;20156;-70
2022/01/25 15:44:46;;;;;;;;;;;3.20;99.90;;;;;;5006099;28;20266;-70
2022/01/25 15:47:13;;;;;;;;;;;3.10;99.90;;;;;;5006110;28;20277;-70
2022/01/25 15:49:41;;;;;;;;;;;3.10;99.90;;;;;;5021648;28;20068;-68
2022/01/25 15:52:09;;;;;;;;;;;3.10;99.90;;;;;;5023012;28;21033;-68
2022/01/25 15:54:36;;;;;;;;;;;3.10;99.90;;;;;;5006240;28;21203;-68
2022/01/25 15:57:04;;;;;;;;;;;3.10;99.90;;;;;;5024534;28;20177;-69
2022/01/25 15:59:31;;;;;;;;;;;3.10;99.90;;;;;;5011653;28;21260;-68
2022/01/25 16:02:09;;;;;;;;;;;3.10;99.90;;;;;;4989364;28;20076;-68
2022/01/25 16:04:41;;;;;;;;;;;3.10;99.90;;;;;;4984826;28;20163;-67